sensor_id;sensor_type;location;lat;lon;timestamp;P1;durP1;ratioP1;P2;durP2;ratioP2
46719;SDS011;32452;51.382;-0.002;2023-05-07T00:01:32;30.63;;;14.63;;
46719;SDS011;32452;51.382;-0.002;2023-05-07T00:04:18;29.85;;;15.02;;
46719;SDS011;32452;51.382;-0.002;2023-05-07T00:07:04;22.67;;;11.70;;
46719;SDS011;32452;51.382;-0.002;2023-05-07T00:09:50;18.02;;;9.38;;
46719;SDS011;32452;51.382;-0.002;2023-05-07T00:12:35;17.30;;;8.75;;
46719;SDS011;32452;51.382;-0.002;2023-05-07T00:15:21;15.63;;;8.27;;
46719;SDS011;32452;51.382;-0.002;2023-05-07T00:18:06;14.60;;;7.07;;
46719;SDS011;32452;51.382;-0.002;2023-05-07T00:20:52;12.60;;;6.65;;
46719;SDS011;32452;51.382;-0.002;2023-05-07T00:23:37;13.23;;;6.53;;
46719;SDS011;32452;51.382;-0.002;2023-05-07T00:26:23;12.75;;;6.40;;
46719;SDS011;32452;51.382;-0.002;2023-05-07T00:29:09;13.18;;;6.45;;
46719;SDS011;32452;51.382;-0.002;2023-05-07T00:31:54;11.65;;;5.95;;
46719;SDS011;32452;51.382;-0.002;2023-05-07T00:34:40;11.88;;;5.13;;
46719;SDS011;32452;51.382;-0.002;2023-05-07T00:37:26;10.25;;;4.85;;
46719;SDS011;32452;51.382;-0.002;2023-05-07T00:40:11;10.35;;;4.82;;
46719;SDS011;32452;51.382;-0.002;2023-05-07T00:42:57;13.80;;;5.72;;
46719;SDS011;32452;51.382;-0.002;2023-05-07T00:45:45;10.65;;;4.93;;
46719;SDS011;32452;51.382;-0.002;2023-05-07T00:48:30;10.07;;;4.80;;
46719;SDS011;32452;51.382;-0.002;2023-05-07T00:51:17;8.38;;;4.32;;
46719;SDS011;32452;51.382;-0.002;2023-05-07T00:54:03;8.07;;;3.78;;
46719;SDS011;32452;51.382;-0.002;2023-05-07T00:56:48;10.48;;;4.75;;
46719;SDS011;32452;51.382;-0.002;2023-05-07T00:59:34;9.07;;;4.28;;
46719;SDS011;32452;51.382;-0.002;2023-05-07T01:02:20;7.70;;;4.07;;
46719;SDS011;32452;51.382;-0.002;2023-05-07T01:05:07;11.73;;;4.60;;
46719;SDS011;32452;51.382;-0.002;2023-05-07T01:07:55;7.85;;;3.92;;
46719;SDS011;32452;51.382;-0.002;2023-05-07T01:10:41;10.15;;;4.93;;
46719;SDS011;32452;51.382;-0.002;2023-05-07T01:13:28;9.95;;;3.97;;
46719;SDS011;32452;51.382;-0.002;2023-05-07T01:16:14;7.28;;;4.32;;
46719;SDS011;32452;51.382;-0.002;2023-05-07T01:19:00;11.23;;;4.72;;
46719;SDS011;32452;51.382;-0.002;2023-05-07T01:21:46;8.88;;;4.43;;
46719;SDS011;32452;51.382;-0.002;2023-05-07T01:24:33;8.80;;;4.18;;
46719;SDS011;32452;51.382;-0.002;2023-05-07T01:27:21;7.93;;;4.70;;
46719;SDS011;32452;51.382;-0.002;2023-05-07T01:30:06;9.57;;;4.65;;
46719;SDS011;32452;51.382;-0.002;2023-05-07T01:32:55;7.95;;;4.18;;
46719;SDS011;32452;51.382;-0.002;2023-05-07T01:35:45;8.13;;;4.20;;
46719;SDS011;32452;51.382;-0.002;2023-05-07T01:38:34;8.82;;;4.25;;
46719;SDS011;32452;51.382;-0.002;2023-05-07T01:41:22;8.57;;;4.40;;
46719;SDS011;32452;51.382;-0.002;2023-05-07T01:44:08;6.55;;;3.70;;
46719;SDS011;32452;51.382;-0.002;2023-05-07T01:46:55;7.40;;;3.72;;
46719;SDS011;32452;51.382;-0.002;2023-05-07T01:49:42;6.88;;;3.47;;
46719;SDS011;32452;51.382;-0.002;2023-05-07T01:52:28;7.45;;;3.92;;
46719;SDS011;32452;51.382;-0.002;2023-05-07T01:55:14;8.98;;;4.28;;
46719;SDS011;32452;51.382;-0.002;2023-05-07T01:57:59;6.55;;;3.80;;
46719;SDS011;32452;51.382;-0.002;2023-05-07T02:00:45;10.05;;;4.90;;
46719;SDS011;32452;51.382;-0.002;2023-05-07T02:03:31;8.18;;;4.47;;
46719;SDS011;32452;51.382;-0.002;2023-05-07T02:06:16;8.07;;;4.53;;
46719;SDS011;32452;51.382;-0.002;2023-05-07T02:09:02;11.55;;;5.10;;
46719;SDS011;32452;51.382;-0.002;2023-05-07T02:11:48;11.07;;;5.45;;
46719;SDS011;32452;51.382;-0.002;2023-05-07T02:14:34;10.95;;;5.75;;
46719;SDS011;32452;51.382;-0.002;2023-05-07T02:17:19;12.00;;;5.53;;
46719;SDS011;32452;51.382;-0.002;2023-05-07T02:20:05;11.38;;;6.20;;
46719;SDS011;32452;51.382;-0.002;2023-05-07T02:22:52;12.10;;;6.07;;
46719;SDS011;32452;51.382;-0.002;2023-05-07T02:25:37;14.38;;;7.55;;
46719;SDS011;32452;51.382;-0.002;2023-05-07T02:28:23;12.52;;;6.60;;
46719;SDS011;32452;51.382;-0.002;2023-05-07T02:31:08;12.73;;;6.57;;
46719;SDS011;32452;51.382;-0.002;2023-05-07T02:33:54;12.77;;;6.55;;
46719;SDS011;32452;51.382;-0.002;2023-05-07T02:36:39;12.05;;;6.78;;
46719;SDS011;32452;51.382;-0.002;2023-05-07T02:39:25;13.60;;;7.40;;
46719;SDS011;32452;51.382;-0.002;2023-05-07T02:42:10;12.98;;;6.95;;
46719;SDS011;32452;51.382;-0.002;2023-05-07T02:44:56;14.25;;;7.43;;
46719;SDS011;32452;51.382;-0.002;2023-05-07T02:47:42;14.07;;;7.05;;
46719;SDS011;32452;51.382;-0.002;2023-05-07T02:50:27;12.65;;;7.68;;
46719;SDS011;32452;51.382;-0.002;2023-05-07T02:53:13;13.65;;;7.50;;
46719;SDS011;32452;51.382;-0.002;2023-05-07T02:55:59;14.63;;;7.50;;
46719;SDS011;32452;51.382;-0.002;2023-05-07T02:58:46;15.30;;;7.68;;
46719;SDS011;32452;51.382;-0.002;2023-05-07T03:01:31;13.20;;;7.53;;
46719;SDS011;32452;51.382;-0.002;2023-05-07T03:04:17;14.27;;;7.63;;
46719;SDS011;32452;51.382;-0.002;2023-05-07T03:07:02;14.18;;;6.97;;
46719;SDS011;32452;51.382;-0.002;2023-05-07T03:09:48;11.57;;;7.20;;
46719;SDS011;32452;51.382;-0.002;2023-05-07T03:12:34;13.85;;;7.10;;
46719;SDS011;32452;51.382;-0.002;2023-05-07T03:15:19;18.30;;;7.75;;
46719;SDS011;32452;51.382;-0.002;2023-05-07T03:18:05;18.75;;;9.07;;
46719;SDS011;32452;51.382;-0.002;2023-05-07T03:20:51;14.60;;;8.55;;
46719;SDS011;32452;51.382;-0.002;2023-05-07T03:23:37;13.60;;;8.27;;
46719;SDS011;32452;51.382;-0.002;2023-05-07T03:26:22;13.98;;;8.75;;
46719;SDS011;32452;51.382;-0.002;2023-05-07T03:29:07;15.43;;;8.48;;
46719;SDS011;32452;51.382;-0.002;2023-05-07T03:31:53;13.73;;;8.27;;
46719;SDS011;32452;51.382;-0.002;2023-05-07T03:34:38;17.73;;;8.95;;
46719;SDS011;32452;51.382;-0.002;2023-05-07T03:37:24;14.35;;;8.07;;
46719;SDS011;32452;51.382;-0.002;2023-05-07T03:40:10;13.90;;;7.10;;
46719;SDS011;32452;51.382;-0.002;2023-05-07T03:42:57;13.65;;;7.18;;
46719;SDS011;32452;51.382;-0.002;2023-05-07T03:45:44;14.55;;;7.80;;
46719;SDS011;32452;51.382;-0.002;2023-05-07T03:48:30;13.93;;;7.90;;
46719;SDS011;32452;51.382;-0.002;2023-05-07T03:51:16;15.52;;;8.48;;
46719;SDS011;32452;51.382;-0.002;2023-05-07T03:54:02;14.07;;;8.43;;
46719;SDS011;32452;51.382;-0.002;2023-05-07T03:56:47;13.95;;;8.60;;
46719;SDS011;32452;51.382;-0.002;2023-05-07T03:59:33;16.80;;;8.40;;
46719;SDS011;32452;51.382;-0.002;2023-05-07T04:02:18;15.15;;;8.23;;
46719;SDS011;32452;51.382;-0.002;2023-05-07T04:05:04;13.90;;;7.38;;
46719;SDS011;32452;51.382;-0.002;2023-05-07T04:07:50;14.25;;;7.75;;
46719;SDS011;32452;51.382;-0.002;2023-05-07T04:10:35;11.98;;;6.88;;
46719;SDS011;32452;51.382;-0.002;2023-05-07T04:13:21;12.30;;;6.88;;
46719;SDS011;32452;51.382;-0.002;2023-05-07T04:16:07;13.48;;;7.55;;
46719;SDS011;32452;51.382;-0.002;2023-05-07T04:18:53;13.10;;;6.85;;
46719;SDS011;32452;51.382;-0.002;2023-05-07T04:21:39;13.15;;;7.07;;
46719;SDS011;32452;51.382;-0.002;2023-05-07T04:24:25;12.52;;;6.75;;
46719;SDS011;32452;51.382;-0.002;2023-05-07T04:27:11;13.15;;;7.47;;
46719;SDS011;32452;51.382;-0.002;2023-05-07T04:29:57;12.23;;;7.18;;
46719;SDS011;32452;51.382;-0.002;2023-05-07T04:32:42;13.52;;;7.18;;
46719;SDS011;32452;51.382;-0.002;2023-05-07T04:35:29;12.98;;;6.65;;
46719;SDS011;32452;51.382;-0.002;2023-05-07T04:38:16;12.68;;;7.25;;
46719;SDS011;32452;51.382;-0.002;2023-05-07T04:41:03;13.50;;;7.38;;
46719;SDS011;32452;51.382;-0.002;2023-05-07T04:43:50;14.88;;;8.13;;
46719;SDS011;32452;51.382;-0.002;2023-05-07T04:46:36;15.68;;;7.88;;
46719;SDS011;32452;51.382;-0.002;2023-05-07T04:49:22;16.58;;;8.38;;
46719;SDS011;32452;51.382;-0.002;2023-05-07T04:52:07;14.77;;;7.95;;
46719;SDS011;32452;51.382;-0.002;2023-05-07T04:54:53;15.75;;;8.30;;
46719;SDS011;32452;51.382;-0.002;2023-05-07T04:57:39;15.32;;;8.65;;
46719;SDS011;32452;51.382;-0.002;2023-05-07T05:00:25;18.25;;;9.23;;
46719;SDS011;32452;51.382;-0.002;2023-05-07T05:03:11;15.50;;;8.68;;
46719;SDS011;32452;51.382;-0.002;2023-05-07T05:05:56;17.77;;;9.63;;
46719;SDS011;32452;51.382;-0.002;2023-05-07T05:08:44;16.85;;;9.30;;
46719;SDS011;32452;51.382;-0.002;2023-05-07T05:11:30;18.13;;;11.25;;
46719;SDS011;32452;51.382;-0.002;2023-05-07T05:14:16;20.67;;;10.82;;
46719;SDS011;32452;51.382;-0.002;2023-05-07T05:17:02;18.08;;;11.15;;
46719;SDS011;32452;51.382;-0.002;2023-05-07T05:19:47;18.15;;;10.45;;
46719;SDS011;32452;51.382;-0.002;2023-05-07T05:22:34;20.38;;;11.38;;
46719;SDS011;32452;51.382;-0.002;2023-05-07T05:25:19;19.38;;;10.95;;
46719;SDS011;32452;51.382;-0.002;2023-05-07T05:28:05;20.73;;;11.98;;
46719;SDS011;32452;51.382;-0.002;2023-05-07T05:30:50;17.90;;;10.35;;
46719;SDS011;32452;51.382;-0.002;2023-05-07T05:33:36;21.25;;;11.30;;
46719;SDS011;32452;51.382;-0.002;2023-05-07T05:36:22;20.98;;;11.43;;
46719;SDS011;32452;51.382;-0.002;2023-05-07T05:39:08;18.92;;;10.85;;
46719;SDS011;32452;51.382;-0.002;2023-05-07T05:41:54;21.15;;;12.02;;
46719;SDS011;32452;51.382;-0.002;2023-05-07T05:44:39;18.75;;;11.05;;
46719;SDS011;32452;51.382;-0.002;2023-05-07T05:47:25;17.63;;;10.10;;
46719;SDS011;32452;51.382;-0.002;2023-05-07T05:50:10;22.20;;;11.30;;
46719;SDS011;32452;51.382;-0.002;2023-05-07T05:52:56;18.70;;;10.10;;
46719;SDS011;32452;51.382;-0.002;2023-05-07T05:55:44;24.58;;;11.48;;
46719;SDS011;32452;51.382;-0.002;2023-05-07T05:58:30;21.83;;;11.30;;
46719;SDS011;32452;51.382;-0.002;2023-05-07T06:01:16;20.50;;;9.90;;
46719;SDS011;32452;51.382;-0.002;2023-05-07T06:04:03;20.90;;;10.45;;
46719;SDS011;32452;51.382;-0.002;2023-05-07T06:06:48;18.73;;;10.18;;
46719;SDS011;32452;51.382;-0.002;2023-05-07T06:09:34;21.42;;;10.45;;
46719;SDS011;32452;51.382;-0.002;2023-05-07T06:12:20;19.90;;;10.05;;
46719;SDS011;32452;51.382;-0.002;2023-05-07T06:15:06;19.08;;;9.80;;
46719;SDS011;32452;51.382;-0.002;2023-05-07T06:17:52;15.30;;;9.43;;
46719;SDS011;32452;51.382;-0.002;2023-05-07T06:20:38;16.58;;;7.80;;
46719;SDS011;32452;51.382;-0.002;2023-05-07T06:23:23;16.38;;;8.50;;
46719;SDS011;32452;51.382;-0.002;2023-05-07T06:26:09;15.02;;;7.53;;
46719;SDS011;32452;51.382;-0.002;2023-05-07T06:28:55;13.57;;;6.97;;
46719;SDS011;32452;51.382;-0.002;2023-05-07T06:31:40;13.80;;;8.27;;
46719;SDS011;32452;51.382;-0.002;2023-05-07T06:34:26;17.02;;;8.90;;
46719;SDS011;32452;51.382;-0.002;2023-05-07T06:37:11;14.85;;;7.88;;
46719;SDS011;32452;51.382;-0.002;2023-05-07T06:39:57;16.30;;;7.80;;
46719;SDS011;32452;51.382;-0.002;2023-05-07T06:42:44;14.40;;;8.60;;
46719;SDS011;32452;51.382;-0.002;2023-05-07T06:45:29;16.70;;;8.57;;
46719;SDS011;32452;51.382;-0.002;2023-05-07T06:48:15;15.15;;;7.82;;
46719;SDS011;32452;51.382;-0.002;2023-05-07T06:51:00;17.48;;;8.50;;
46719;SDS011;32452;51.382;-0.002;2023-05-07T06:53:46;17.65;;;8.65;;
46719;SDS011;32452;51.382;-0.002;2023-05-07T06:56:32;16.10;;;8.90;;
46719;SDS011;32452;51.382;-0.002;2023-05-07T06:59:19;15.88;;;8.75;;
46719;SDS011;32452;51.382;-0.002;2023-05-07T07:02:04;16.00;;;8.43;;
46719;SDS011;32452;51.382;-0.002;2023-05-07T07:04:50;16.17;;;8.93;;
46719;SDS011;32452;51.382;-0.002;2023-05-07T07:07:36;18.10;;;9.05;;
46719;SDS011;32452;51.382;-0.002;2023-05-07T07:10:22;19.73;;;8.57;;
46719;SDS011;32452;51.382;-0.002;2023-05-07T07:13:07;13.10;;;6.88;;
46719;SDS011;32452;51.382;-0.002;2023-05-07T07:15:53;15.05;;;7.25;;
46719;SDS011;32452;51.382;-0.002;2023-05-07T07:18:39;16.40;;;7.72;;
46719;SDS011;32452;51.382;-0.002;2023-05-07T07:21:25;14.13;;;6.60;;
46719;SDS011;32452;51.382;-0.002;2023-05-07T07:24:10;16.52;;;7.20;;
46719;SDS011;32452;51.382;-0.002;2023-05-07T07:26:56;15.15;;;7.45;;
46719;SDS011;32452;51.382;-0.002;2023-05-07T07:29:41;18.17;;;8.05;;
46719;SDS011;32452;51.382;-0.002;2023-05-07T07:32:27;13.98;;;7.63;;
46719;SDS011;32452;51.382;-0.002;2023-05-07T07:35:13;17.45;;;8.35;;
46719;SDS011;32452;51.382;-0.002;2023-05-07T07:37:58;15.48;;;8.45;;
46719;SDS011;32452;51.382;-0.002;2023-05-07T07:40:43;13.52;;;6.30;;
46719;SDS011;32452;51.382;-0.002;2023-05-07T07:43:29;16.13;;;7.75;;
46719;SDS011;32452;51.382;-0.002;2023-05-07T07:46:15;18.65;;;8.43;;
46719;SDS011;32452;51.382;-0.002;2023-05-07T07:49:00;14.32;;;7.15;;
46719;SDS011;32452;51.382;-0.002;2023-05-07T07:51:45;15.50;;;8.32;;
46719;SDS011;32452;51.382;-0.002;2023-05-07T07:54:31;17.33;;;8.63;;
46719;SDS011;32452;51.382;-0.002;2023-05-07T07:57:17;17.20;;;8.20;;
46719;SDS011;32452;51.382;-0.002;2023-05-07T08:00:03;14.65;;;8.60;;
46719;SDS011;32452;51.382;-0.002;2023-05-07T08:02:49;15.35;;;7.53;;
46719;SDS011;32452;51.382;-0.002;2023-05-07T08:05:35;16.08;;;9.07;;
46719;SDS011;32452;51.382;-0.002;2023-05-07T08:08:21;16.67;;;8.38;;
46719;SDS011;32452;51.382;-0.002;2023-05-07T08:11:07;16.25;;;9.13;;
46719;SDS011;32452;51.382;-0.002;2023-05-07T08:13:53;16.27;;;8.80;;
46719;SDS011;32452;51.382;-0.002;2023-05-07T08:16:39;17.58;;;9.68;;
46719;SDS011;32452;51.382;-0.002;2023-05-07T08:19:25;19.55;;;11.10;;
46719;SDS011;32452;51.382;-0.002;2023-05-07T08:22:11;15.90;;;9.10;;
46719;SDS011;32452;51.382;-0.002;2023-05-07T08:24:56;18.58;;;11.63;;
46719;SDS011;32452;51.382;-0.002;2023-05-07T08:27:42;17.38;;;11.05;;
46719;SDS011;32452;51.382;-0.002;2023-05-07T08:30:29;18.90;;;11.02;;
46719;SDS011;32452;51.382;-0.002;2023-05-07T08:33:15;15.55;;;10.20;;
46719;SDS011;32452;51.382;-0.002;2023-05-07T08:36:00;18.20;;;10.52;;
46719;SDS011;32452;51.382;-0.002;2023-05-07T08:38:46;16.85;;;10.50;;
46719;SDS011;32452;51.382;-0.002;2023-05-07T08:41:31;19.05;;;10.30;;
46719;SDS011;32452;51.382;-0.002;2023-05-07T08:44:18;16.38;;;9.68;;
46719;SDS011;32452;51.382;-0.002;2023-05-07T08:47:08;14.32;;;8.40;;
46719;SDS011;32452;51.382;-0.002;2023-05-07T08:49:55;16.85;;;8.77;;
46719;SDS011;32452;51.382;-0.002;2023-05-07T08:52:41;12.35;;;7.45;;
46719;SDS011;32452;51.382;-0.002;2023-05-07T08:55:26;14.15;;;7.22;;
46719;SDS011;32452;51.382;-0.002;2023-05-07T08:58:14;14.27;;;7.22;;
46719;SDS011;32452;51.382;-0.002;2023-05-07T09:01:00;13.48;;;7.82;;
46719;SDS011;32452;51.382;-0.002;2023-05-07T09:03:51;12.15;;;6.55;;
46719;SDS011;32452;51.382;-0.002;2023-05-07T09:06:38;9.60;;;5.57;;
46719;SDS011;32452;51.382;-0.002;2023-05-07T09:09:26;10.70;;;5.85;;
46719;SDS011;32452;51.382;-0.002;2023-05-07T09:12:12;10.82;;;5.00;;
46719;SDS011;32452;51.382;-0.002;2023-05-07T09:14:58;7.90;;;4.07;;
46719;SDS011;32452;51.382;-0.002;2023-05-07T09:17:44;8.38;;;4.40;;
46719;SDS011;32452;51.382;-0.002;2023-05-07T09:20:30;8.55;;;4.38;;
46719;SDS011;32452;51.382;-0.002;2023-05-07T09:23:16;8.07;;;4.50;;
46719;SDS011;32452;51.382;-0.002;2023-05-07T09:26:03;8.93;;;4.88;;
46719;SDS011;32452;51.382;-0.002;2023-05-07T09:28:53;10.68;;;5.43;;
46719;SDS011;32452;51.382;-0.002;2023-05-07T09:31:39;6.53;;;4.10;;
46719;SDS011;32452;51.382;-0.002;2023-05-07T09:34:25;8.63;;;4.18;;
46719;SDS011;32452;51.382;-0.002;2023-05-07T09:37:12;8.00;;;5.20;;
46719;SDS011;32452;51.382;-0.002;2023-05-07T09:39:57;6.88;;;4.20;;
46719;SDS011;32452;51.382;-0.002;2023-05-07T09:42:43;7.72;;;4.32;;
46719;SDS011;32452;51.382;-0.002;2023-05-07T09:45:28;8.02;;;3.95;;
46719;SDS011;32452;51.382;-0.002;2023-05-07T09:48:14;8.32;;;4.93;;
46719;SDS011;32452;51.382;-0.002;2023-05-07T09:51:02;7.43;;;4.20;;
46719;SDS011;32452;51.382;-0.002;2023-05-07T09:53:51;7.70;;;4.20;;
46719;SDS011;32452;51.382;-0.002;2023-05-07T09:56:38;7.22;;;3.65;;
46719;SDS011;32452;51.382;-0.002;2023-05-07T09:59:26;6.63;;;3.65;;
46719;SDS011;32452;51.382;-0.002;2023-05-07T10:02:14;6.97;;;3.65;;
46719;SDS011;32452;51.382;-0.002;2023-05-07T10:05:02;7.07;;;4.10;;
46719;SDS011;32452;51.382;-0.002;2023-05-07T10:07:48;7.60;;;3.42;;
46719;SDS011;32452;51.382;-0.002;2023-05-07T10:10:35;6.80;;;3.72;;
46719;SDS011;32452;51.382;-0.002;2023-05-07T10:13:21;9.60;;;4.82;;
46719;SDS011;32452;51.382;-0.002;2023-05-07T10:16:07;6.95;;;3.75;;
46719;SDS011;32452;51.382;-0.002;2023-05-07T10:18:53;5.43;;;3.80;;
46719;SDS011;32452;51.382;-0.002;2023-05-07T10:21:42;5.22;;;3.45;;
46719;SDS011;32452;51.382;-0.002;2023-05-07T10:24:32;8.50;;;4.20;;
46719;SDS011;32452;51.382;-0.002;2023-05-07T10:27:19;6.53;;;4.05;;
46719;SDS011;32452;51.382;-0.002;2023-05-07T10:32:58;7.43;;;4.25;;
46719;SDS011;32452;51.382;-0.002;2023-05-07T10:35:51;9.75;;;5.10;;
46719;SDS011;32452;51.382;-0.002;2023-05-07T10:38:40;10.02;;;4.20;;
46719;SDS011;32452;51.382;-0.002;2023-05-07T10:41:26;7.30;;;4.68;;
46719;SDS011;32452;51.382;-0.002;2023-05-07T10:44:14;30.58;;;16.70;;
46719;SDS011;32452;51.382;-0.002;2023-05-07T10:47:14;8.15;;;5.22;;
46719;SDS011;32452;51.382;-0.002;2023-05-07T10:59:29;11.57;;;7.35;;
46719;SDS011;32452;51.382;-0.002;2023-05-07T11:02:09;9.27;;;5.25;;
46719;SDS011;32452;51.382;-0.002;2023-05-07T11:08:04;8.30;;;5.03;;
46719;SDS011;32452;51.382;-0.002;2023-05-07T11:13:41;9.30;;;5.07;;
46719;SDS011;32452;51.382;-0.002;2023-05-07T11:16:34;7.85;;;4.63;;
46719;SDS011;32452;51.382;-0.002;2023-05-07T11:19:47;7.85;;;5.22;;
46719;SDS011;32452;51.382;-0.002;2023-05-07T11:25:20;9.57;;;5.78;;
46719;SDS011;32452;51.382;-0.002;2023-05-07T11:28:07;10.98;;;6.05;;
46719;SDS011;32452;51.382;-0.002;2023-05-07T11:30:56;9.55;;;5.90;;
46719;SDS011;32452;51.382;-0.002;2023-05-07T11:33:43;9.68;;;5.93;;
46719;SDS011;32452;51.382;-0.002;2023-05-07T11:36:30;9.98;;;5.78;;
46719;SDS011;32452;51.382;-0.002;2023-05-07T11:39:30;8.70;;;6.05;;
46719;SDS011;32452;51.382;-0.002;2023-05-07T11:42:31;8.45;;;5.78;;
46719;SDS011;32452;51.382;-0.002;2023-05-07T11:45:24;10.10;;;6.72;;
46719;SDS011;32452;51.382;-0.002;2023-05-07T11:48:10;9.60;;;6.18;;
46719;SDS011;32452;51.382;-0.002;2023-05-07T11:51:03;9.10;;;5.93;;
46719;SDS011;32452;51.382;-0.002;2023-05-07T11:53:50;9.15;;;5.10;;
46719;SDS011;32452;51.382;-0.002;2023-05-07T11:56:37;8.57;;;5.50;;
46719;SDS011;32452;51.382;-0.002;2023-05-07T11:59:23;7.55;;;5.28;;
46719;SDS011;32452;51.382;-0.002;2023-05-07T12:02:09;9.25;;;5.70;;
46719;SDS011;32452;51.382;-0.002;2023-05-07T12:04:55;8.70;;;5.40;;
46719;SDS011;32452;51.382;-0.002;2023-05-07T12:07:41;7.93;;;5.28;;
46719;SDS011;32452;51.382;-0.002;2023-05-07T12:10:26;8.77;;;5.22;;
46719;SDS011;32452;51.382;-0.002;2023-05-07T12:13:19;8.82;;;5.38;;
46719;SDS011;32452;51.382;-0.002;2023-05-07T12:16:09;6.68;;;5.20;;
46719;SDS011;32452;51.382;-0.002;2023-05-07T12:18:55;9.32;;;6.00;;
46719;SDS011;32452;51.382;-0.002;2023-05-07T12:21:43;8.68;;;5.97;;
46719;SDS011;32452;51.382;-0.002;2023-05-07T12:24:39;10.32;;;7.50;;
46719;SDS011;32452;51.382;-0.002;2023-05-07T12:27:31;8.90;;;6.28;;
46719;SDS011;32452;51.382;-0.002;2023-05-07T12:30:16;15.40;;;8.00;;
46719;SDS011;32452;51.382;-0.002;2023-05-07T12:33:03;14.90;;;8.70;;
46719;SDS011;32452;51.382;-0.002;2023-05-07T12:35:49;11.43;;;8.15;;
46719;SDS011;32452;51.382;-0.002;2023-05-07T12:38:35;17.90;;;11.52;;
46719;SDS011;32452;51.382;-0.002;2023-05-07T12:41:22;10.93;;;7.97;;
46719;SDS011;32452;51.382;-0.002;2023-05-07T12:44:11;12.02;;;7.63;;
46719;SDS011;32452;51.382;-0.002;2023-05-07T12:47:03;8.68;;;5.53;;
46719;SDS011;32452;51.382;-0.002;2023-05-07T12:49:49;9.30;;;6.00;;
46719;SDS011;32452;51.382;-0.002;2023-05-07T12:52:41;10.80;;;5.10;;
46719;SDS011;32452;51.382;-0.002;2023-05-07T12:56:00;8.80;;;6.05;;
46719;SDS011;32452;51.382;-0.002;2023-05-07T12:58:45;8.68;;;5.18;;
46719;SDS011;32452;51.382;-0.002;2023-05-07T13:01:33;7.97;;;4.90;;
46719;SDS011;32452;51.382;-0.002;2023-05-07T13:04:20;8.35;;;5.20;;
46719;SDS011;32452;51.382;-0.002;2023-05-07T13:07:06;7.35;;;3.58;;
46719;SDS011;32452;51.382;-0.002;2023-05-07T13:09:51;5.78;;;3.25;;
46719;SDS011;32452;51.382;-0.002;2023-05-07T13:12:37;5.68;;;3.40;;
46719;SDS011;32452;51.382;-0.002;2023-05-07T13:15:22;11.73;;;6.70;;
46719;SDS011;32452;51.382;-0.002;2023-05-07T13:18:08;16.20;;;8.98;;
46719;SDS011;32452;51.382;-0.002;2023-05-07T13:20:56;9.27;;;5.60;;
46719;SDS011;32452;51.382;-0.002;2023-05-07T13:23:42;10.43;;;4.97;;
46719;SDS011;32452;51.382;-0.002;2023-05-07T13:26:30;7.45;;;3.63;;
46719;SDS011;32452;51.382;-0.002;2023-05-07T13:29:16;5.93;;;3.15;;
46719;SDS011;32452;51.382;-0.002;2023-05-07T13:32:02;6.25;;;3.30;;
46719;SDS011;32452;51.382;-0.002;2023-05-07T13:34:48;5.05;;;2.63;;
46719;SDS011;32452;51.382;-0.002;2023-05-07T13:37:33;4.40;;;2.63;;
46719;SDS011;32452;51.382;-0.002;2023-05-07T13:40:19;5.32;;;2.97;;
46719;SDS011;32452;51.382;-0.002;2023-05-07T13:43:06;4.47;;;2.90;;
46719;SDS011;32452;51.382;-0.002;2023-05-07T13:45:51;6.75;;;3.17;;
46719;SDS011;32452;51.382;-0.002;2023-05-07T13:48:36;8.02;;;3.92;;
46719;SDS011;32452;51.382;-0.002;2023-05-07T13:51:22;7.05;;;3.03;;
46719;SDS011;32452;51.382;-0.002;2023-05-07T13:54:08;4.75;;;2.83;;
46719;SDS011;32452;51.382;-0.002;2023-05-07T13:56:53;9.43;;;4.45;;
46719;SDS011;32452;51.382;-0.002;2023-05-07T13:59:40;5.85;;;2.70;;
46719;SDS011;32452;51.382;-0.002;2023-05-07T14:02:26;5.85;;;2.70;;
46719;SDS011;32452;51.382;-0.002;2023-05-07T14:05:12;3.78;;;2.58;;
46719;SDS011;32452;51.382;-0.002;2023-05-07T14:07:58;5.93;;;3.47;;
46719;SDS011;32452;51.382;-0.002;2023-05-07T14:10:44;10.45;;;5.35;;
46719;SDS011;32452;51.382;-0.002;2023-05-07T14:13:29;4.80;;;3.00;;
46719;SDS011;32452;51.382;-0.002;2023-05-07T14:16:15;3.38;;;2.60;;
46719;SDS011;32452;51.382;-0.002;2023-05-07T14:19:01;5.43;;;3.40;;
46719;SDS011;32452;51.382;-0.002;2023-05-07T14:21:46;5.28;;;2.65;;
46719;SDS011;32452;51.382;-0.002;2023-05-07T14:24:32;4.93;;;2.42;;
46719;SDS011;32452;51.382;-0.002;2023-05-07T14:27:22;5.90;;;2.58;;
46719;SDS011;32452;51.382;-0.002;2023-05-07T14:30:08;4.68;;;3.03;;
46719;SDS011;32452;51.382;-0.002;2023-05-07T14:32:54;4.78;;;2.58;;
46719;SDS011;32452;51.382;-0.002;2023-05-07T14:35:43;8.32;;;2.60;;
46719;SDS011;32452;51.382;-0.002;2023-05-07T14:38:34;5.57;;;2.53;;
46719;SDS011;32452;51.382;-0.002;2023-05-07T14:41:20;2.70;;;2.33;;
46719;SDS011;32452;51.382;-0.002;2023-05-07T14:44:06;4.07;;;2.45;;
46719;SDS011;32452;51.382;-0.002;2023-05-07T14:46:52;4.60;;;2.45;;
46719;SDS011;32452;51.382;-0.002;2023-05-07T14:49:42;6.93;;;3.45;;
46719;SDS011;32452;51.382;-0.002;2023-05-07T14:52:30;5.07;;;2.58;;
46719;SDS011;32452;51.382;-0.002;2023-05-07T14:55:22;3.97;;;2.80;;
46719;SDS011;32452;51.382;-0.002;2023-05-07T14:58:07;3.58;;;2.70;;
46719;SDS011;32452;51.382;-0.002;2023-05-07T15:00:53;4.22;;;2.80;;
46719;SDS011;32452;51.382;-0.002;2023-05-07T15:03:39;4.65;;;2.40;;
46719;SDS011;32452;51.382;-0.002;2023-05-07T15:06:25;2.70;;;2.03;;
46719;SDS011;32452;51.382;-0.002;2023-05-07T15:09:11;4.28;;;2.40;;
46719;SDS011;32452;51.382;-0.002;2023-05-07T15:11:57;4.28;;;2.75;;
46719;SDS011;32452;51.382;-0.002;2023-05-07T15:14:43;3.85;;;2.60;;
46719;SDS011;32452;51.382;-0.002;2023-05-07T15:17:29;5.10;;;2.10;;
46719;SDS011;32452;51.382;-0.002;2023-05-07T15:20:14;3.08;;;1.77;;
46719;SDS011;32452;51.382;-0.002;2023-05-07T15:23:00;3.97;;;2.13;;
46719;SDS011;32452;51.382;-0.002;2023-05-07T15:25:46;4.15;;;2.35;;
46719;SDS011;32452;51.382;-0.002;2023-05-07T15:28:36;6.00;;;2.40;;
46719;SDS011;32452;51.382;-0.002;2023-05-07T15:31:24;3.42;;;2.22;;
46719;SDS011;32452;51.382;-0.002;2023-05-07T15:34:10;5.28;;;2.35;;
46719;SDS011;32452;51.382;-0.002;2023-05-07T15:36:55;5.43;;;2.40;;
46719;SDS011;32452;51.382;-0.002;2023-05-07T15:39:42;3.03;;;1.80;;
46719;SDS011;32452;51.382;-0.002;2023-05-07T15:42:27;4.32;;;2.30;;
46719;SDS011;32452;51.382;-0.002;2023-05-07T15:45:13;9.55;;;4.88;;
46719;SDS011;32452;51.382;-0.002;2023-05-07T15:47:59;4.22;;;2.78;;
46719;SDS011;32452;51.382;-0.002;2023-05-07T15:50:45;3.65;;;2.33;;
46719;SDS011;32452;51.382;-0.002;2023-05-07T15:53:30;5.03;;;2.10;;
46719;SDS011;32452;51.382;-0.002;2023-05-07T15:56:16;18.30;;;11.48;;
46719;SDS011;32452;51.382;-0.002;2023-05-07T15:59:02;3.85;;;2.10;;
46719;SDS011;32452;51.382;-0.002;2023-05-07T16:01:48;3.38;;;2.05;;
46719;SDS011;32452;51.382;-0.002;2023-05-07T16:04:34;3.08;;;2.08;;
46719;SDS011;32452;51.382;-0.002;2023-05-07T16:07:19;3.45;;;2.35;;
46719;SDS011;32452;51.382;-0.002;2023-05-07T16:10:06;3.33;;;1.85;;
46719;SDS011;32452;51.382;-0.002;2023-05-07T16:12:53;2.63;;;1.45;;
46719;SDS011;32452;51.382;-0.002;2023-05-07T16:15:39;4.53;;;1.70;;
46719;SDS011;32452;51.382;-0.002;2023-05-07T16:18:25;3.10;;;1.80;;
46719;SDS011;32452;51.382;-0.002;2023-05-07T16:21:10;5.45;;;1.60;;
46719;SDS011;32452;51.382;-0.002;2023-05-07T16:23:56;3.70;;;1.67;;
46719;SDS011;32452;51.382;-0.002;2023-05-07T16:26:42;2.85;;;1.83;;
46719;SDS011;32452;51.382;-0.002;2023-05-07T16:29:27;3.60;;;1.70;;
46719;SDS011;32452;51.382;-0.002;2023-05-07T16:32:13;3.10;;;1.75;;
46719;SDS011;32452;51.382;-0.002;2023-05-07T16:34:59;3.53;;;2.13;;
46719;SDS011;32452;51.382;-0.002;2023-05-07T16:37:45;4.43;;;2.28;;
46719;SDS011;32452;51.382;-0.002;2023-05-07T16:40:31;3.50;;;1.52;;